Time;durP1;ratioP1;P1;durP2;ratioP2;P2;SDS_P1;SDS_P2;PMS_P1;PMS_P2;Temp;Humidity;BMP_temperature;BMP_pressure;BME280_temperature;BME280_humidity;BME280_pressure;Samples;Min_cycle;Max_cycle;Signal;HPM_P1;HPM_P2
2021/12/06 00:02:15;;;;;;;33.50;13.93;;;;;;;4.60;79.99;99955.08;126263;1099;104143;-82
2021/12/06 00:04:46;;;;;;;35.33;15.43;;;;;;;4.62;79.79;99953.44;126342;1099;104271;-82
2021/12/06 00:07:21;;;;;;;38.13;16.30;;;;;;;4.65;79.54;99961.39;126357;1099;104338;-83
2021/12/06 00:09:53;;;;;;;35.67;16.20;;;;;;;4.67;80.02;99958.06;126328;1099;104195;-83
2021/12/06 00:12:24;;;;;;;36.00;15.87;;;;;;;4.66;79.55;99951.07;126285;1099;104249;-83
2021/12/06 00:14:55;;;;;;;37.00;16.07;;;;;;;4.63;79.77;99958.71;126352;1099;104275;-82
2021/12/06 00:17:27;;;;;;;32.20;14.57;;;;;;;4.65;79.80;99961.39;126347;1099;105360;-83
2021/12/06 00:19:58;;;;;;;34.27;15.53;;;;;;;4.66;79.29;99964.06;126349;1099;104137;-83
2021/12/06 00:22:30;;;;;;;34.33;15.67;;;;;;;4.72;80.35;99962.58;126288;1099;104152;-83
2021/12/06 00:25:07;;;;;;;37.90;16.03;;;;;;;4.77;79.83;99963.70;126366;1099;104693;-83
2021/12/06 00:27:40;;;;;;;35.63;15.37;;;;;;;4.78;79.96;99958.57;126341;1099;104149;-83
2021/12/06 00:30:16;;;;;;;34.13;15.67;;;;;;;4.77;79.87;99955.89;126371;1099;104146;-83
2021/12/06 00:32:48;;;;;;;36.90;15.70;;;;;;;4.75;79.95;99958.42;126274;1098;104309;-82
2021/12/06 00:35:22;;;;;;;39.77;16.50;;;;;;;4.72;80.17;99944.39;126322;1099;104226;-83
2021/12/06 00:37:57;;;;;;;41.03;15.30;;;;;;;4.72;79.81;99944.39;126324;1099;104150;-83
2021/12/06 00:40:33;;;;;;;36.73;15.03;;;;;;;4.72;79.43;99952.19;126354;1099;104149;-82
2021/12/06 00:43:05;;;;;;;39.00;15.70;;;;;;;4.74;80.00;99945.38;126282;1099;104149;-81
2021/12/06 00:45:37;;;;;;;38.90;16.37;;;;;;;4.77;80.17;99946.41;126351;1099;104385;-82
2021/12/06 00:48:08;;;;;;;36.17;14.80;;;;;;;4.75;80.24;99934.14;126339;1099;104243;-83
2021/12/06 00:50:43;;;;;;;39.23;16.63;;;;;;;4.74;80.29;99950.58;126298;1099;104284;-83
2021/12/06 00:53:15;;;;;;;40.47;16.80;;;;;;;4.73;79.91;99944.47;126295;1099;104612;-83
2021/12/06 00:55:49;;;;;;;37.90;16.20;;;;;;;4.72;79.80;99945.30;126377;1099;104203;-82
2021/12/06 00:58:19;;;;;;;;;;;;;;;4.71;80.43;99940.03;126324;1099;104245;-82
2021/12/06 01:00:53;;;;;;;39.90;15.93;;;;;;;4.68;80.47;99952.03;126306;1099;104236;-83
2021/12/06 01:03:28;;;;;;;40.73;16.60;;;;;;;4.69;80.52;99950.34;126274;1099;104239;-82
2021/12/06 01:06:00;;;;;;;39.33;16.02;;;;;;;4.74;80.21;99947.98;126324;1099;104169;-83
2021/12/06 01:08:31;;;;;;;37.53;15.07;;;;;;;4.77;80.12;99948.09;126270;1099;104210;-83
2021/12/06 01:11:04;;;;;;;35.13;16.10;;;;;;;4.84;80.51;99950.20;126334;1098;104143;-83
2021/12/06 01:13:36;;;;;;;40.95;17.10;;;;;;;4.91;80.70;99940.98;126292;1099;104220;-83
2021/12/06 01:16:08;;;;;;;37.87;16.73;;;;;;;4.92;80.00;99938.46;126259;1099;104226;-82
2021/12/06 01:18:40;;;;;;;42.93;18.50;;;;;;;4.90;80.03;99934.91;126286;1099;104181;-82
2021/12/06 01:21:18;;;;;;;43.10;18.40;;;;;;;4.88;79.86;99940.84;126274;1098;104207;-83
2021/12/06 01:23:55;;;;;;;42.03;17.90;;;;;;;4.85;79.94;99939.87;126306;1099;104146;-83
2021/12/06 01:26:43;;;;;;;40.10;16.57;;;;;;;4.83;80.43;99943.20;126335;1099;104277;-83
2021/12/06 01:29:43;;;;;;;39.70;16.63;;;;;;;4.81;80.04;99914.53;126348;1099;104150;-83
2021/12/06 01:32:47;;;;;;;40.17;16.20;;;;;;;4.86;80.01;99917.36;126398;1099;104166;-83
2021/12/06 01:40:50;;;;;;;43.03;18.13;;;;;;;4.97;80.59;99908.41;126277;1099;104185;-83
2021/12/06 01:43:22;;;;;;;38.23;16.53;;;;;;;4.96;79.94;99897.92;126326;1099;104249;-83
2021/12/06 01:45:55;;;;;;;39.30;17.32;;;;;;;4.90;80.07;99903.70;126308;1099;104152;-83
2021/12/06 01:48:27;;;;;;;45.17;18.97;;;;;;;4.84;80.15;99899.09;126356;1099;104396;-83
2021/12/06 01:50:59;;;;;;;43.60;17.97;;;;;;;4.81;80.24;99898.06;126303;1099;104258;-83
2021/12/06 01:53:31;;;;;;;41.40;18.15;;;;;;;4.81;80.00;99898.06;126265;1099;104182;-83
2021/12/06 01:56:02;;;;;;;39.20;17.03;;;;;;;4.82;80.18;99898.13;126289;1099;104149;-81
2021/12/06 01:58:33;;;;;;;41.70;17.53;;;;;;;4.85;80.48;99894.80;126290;1099;104181;-81
2021/12/06 02:01:05;;;;;;;37.47;16.63;;;;;;;4.85;80.33;99881.80;126324;1099;104576;-82
2021/12/06 02:03:37;;;;;;;47.53;19.17;;;;;;;4.84;80.39;99880.02;126322;1099;104172;-82
2021/12/06 02:06:10;;;;;;;44.75;19.85;;;;;;;4.84;80.44;99877.41;126334;1099;104245;-84
2021/12/06 02:08:41;;;;;;;44.50;20.20;;;;;;;4.83;80.28;99880.81;126296;1098;104197;-83
2021/12/06 02:11:13;;;;;;;49.17;21.23;;;;;;;4.83;79.96;99875.62;126351;1099;104205;-83
2021/12/06 02:13:53;;;;;;;48.07;21.47;;;;;;;4.83;80.04;99880.81;126280;1099;104168;-82
2021/12/06 02:16:34;;;;;;;44.17;19.80;;;;;;;4.89;80.73;99878.52;126308;1099;104306;-83
2021/12/06 02:19:06;;;;;;;47.27;20.57;;;;;;;4.93;80.51;99882.17;126306;1099;104204;-83
2021/12/06 02:21:41;;;;;;;44.07;19.63;;;;;;;4.94;80.15;99882.25;126302;1099;104175;-82
2021/12/06 02:24:15;;;;;;;43.83;19.13;;;;;;;4.96;80.87;99875.41;126357;1098;104223;-83
2021/12/06 02:26:48;;;;;;;45.77;20.63;;;;;;;5.00;80.35;99882.55;126179;1099;104316;-83
2021/12/06 02:29:20;;;;;;;48.13;21.07;;;;;;;5.06;80.60;99881.92;126220;1099;104207;-82
2021/12/06 02:31:52;;;;;;;48.93;22.37;;;;;;;5.10;80.68;99889.07;125431;1099;104683;-83
2021/12/06 02:34:23;;;;;;;48.07;22.13;;;;;;;5.09;80.52;99882.08;126201;1099;104386;-83
2021/12/06 02:36:55;;;;;;;49.23;22.90;;;;;;;5.05;80.26;99877.57;126234;1099;104255;-83
2021/12/06 02:39:29;;;;;;;47.10;21.45;;;;;;;5.04;80.57;99875.77;126221;1099;104595;-83
2021/12/06 02:42:01;;;;;;;53.27;22.80;;;;;;;5.01;81.00;99879.11;126186;1099;104147;-82
2021/12/06 02:44:33;;;;;;;51.00;21.00;;;;;;;5.00;80.82;99874.75;126218;1099;104692;-84
2021/12/06 02:47:04;;;;;;;48.37;20.10;;;;;;;5.01;80.44;99879.11;126198;1099;104246;-83
2021/12/06 02:49:36;;;;;;;49.43;21.23;;;;;;;5.01;80.75;99879.11;125453;1099;104580;-83
2021/12/06 02:52:11;;;;;;;47.90;21.27;;;;;;;5.01;80.45;99889.51;125403;1099;104389;-83
2021/12/06 02:54:41;;;;;;;;;;;;;;;5.00;80.88;99882.55;125382;1099;104325;-83
2021/12/06 02:57:31;;;;;;;50.07;19.80;;;;;;;5.00;80.64;99879.03;126211;1099;104205;-83
2021/12/06 03:00:05;;;;;;;44.43;19.70;;;;;;;5.03;80.72;99877.49;126216;1099;104195;-83
2021/12/06 03:02:35;;;;;;;;;;;;;;;5.06;80.97;99875.84;126289;1099;104351;-83
2021/12/06 03:05:09;;;;;;;46.80;19.70;;;;;;;5.11;80.76;99879.55;126236;1099;104576;-83
2021/12/06 03:07:41;;;;;;;56.02;21.57;;;;;;;5.13;80.66;99875.33;126284;1099;104226;-82
2021/12/06 03:10:12;;;;;;;50.40;21.93;;;;;;;5.16;81.26;99862.48;126376;1099;101793;-83
2021/12/06 03:12:44;;;;;;;50.13;21.50;;;;;;;5.17;80.98;99866.83;126269;1099;104210;-83
2021/12/06 03:15:16;;;;;;;54.30;23.43;;;;;;;5.18;80.79;99855.63;126312;1099;104268;-83
2021/12/06 03:17:48;;;;;;;55.43;23.27;;;;;;;5.17;80.75;99849.55;126328;1099;104178;-83
2021/12/06 03:20:20;;;;;;;52.77;22.33;;;;;;;5.14;81.09;99849.39;126276;1099;104171;-83
2021/12/06 03:22:51;;;;;;;54.20;23.45;;;;;;;5.14;81.12;99849.39;126387;1099;104249;-83
2021/12/06 03:25:23;;;;;;;50.90;21.23;;;;;;;5.14;81.12;99849.39;126258;1099;104201;-83
2021/12/06 03:27:54;;;;;;;49.57;21.67;;;;;;;5.13;80.80;99842.41;125299;1099;104140;-83
2021/12/06 03:30:26;;;;;;;52.63;22.20;;;;;;;5.14;81.04;99848.48;125353;1099;104322;-83
2021/12/06 03:32:58;;;;;;;50.73;21.80;;;;;;;5.18;80.87;99848.70;125339;1099;104258;-83
2021/12/06 03:35:30;;;;;;;49.33;20.63;;;;;;;5.22;81.49;99852.36;125279;1099;104319;-84
2021/12/06 03:38:02;;;;;;;56.37;22.40;;;;;;;5.22;81.06;99858.44;125268;1102;104178;-83
2021/12/06 03:40:34;;;;;;;51.70;22.23;;;;;;;5.26;81.28;99858.59;125313;1102;104915;-83
2021/12/06 03:43:05;;;;;;;56.67;23.33;;;;;;;5.29;81.23;99850.92;125266;1102;104344;-83
2021/12/06 03:45:38;;;;;;;50.67;23.30;;;;;;;5.28;81.29;99857.81;125234;1102;104220;-82
2021/12/06 03:48:10;;;;;;;52.37;22.50;;;;;;;5.26;81.62;99856.86;125328;1100;104239;-83
2021/12/06 03:50:41;;;;;;;56.77;24.20;;;;;;;5.21;81.43;99846.24;125324;1102;104229;-83
2021/12/06 03:53:13;;;;;;;56.30;23.40;;;;;;;5.18;81.13;99853.02;125325;1099;104200;-83
2021/12/06 03:55:45;;;;;;;53.63;23.83;;;;;;;5.16;81.23;99857.27;125291;1099;104325;-84
2021/12/06 03:58:16;;;;;;;55.53;23.07;;;;;;;5.18;81.33;99859.11;125161;1100;104267;-83
2021/12/06 04:00:47;;;;;;;63.13;24.43;;;;;;;5.20;81.11;99859.17;125253;1099;104143;-80
2021/12/06 04:03:22;;;;;;;54.17;24.50;;;;;;;5.24;81.26;99860.23;125258;1102;102221;-80
2021/12/06 04:05:53;;;;;;;63.50;24.47;;;;;;;5.28;81.62;99860.41;125525;1099;104323;-83
2021/12/06 04:08:25;;;;;;;59.80;25.17;;;;;;;5.27;81.10;99850.85;126279;1099;117828;-82
2021/12/06 04:10:58;;;;;;;58.47;23.83;;;;;;;5.27;81.70;99853.45;126346;1099;104277;-83
2021/12/06 04:13:30;;;;;;;56.17;23.83;;;;;;;5.28;81.49;99851.73;126287;1099;104146;-83
2021/12/06 04:16:03;;;;;;;58.90;23.90;;;;;;;5.33;81.52;99850.22;126301;1099;104140;-82
2021/12/06 04:18:35;;;;;;;69.72;25.85;;;;;;;5.38;81.28;99844.42;126316;1099;104146;-82
2021/12/06 04:21:09;;;;;;;69.00;26.00;;;;;;;5.39;81.45;99842.70;126344;1099;104281;-82
2021/12/06 04:23:42;;;;;;;72.63;27.10;;;;;;;5.44;81.38;99838.63;126297;1099;104168;-83
2021/12/06 04:26:14;;;;;;;66.70;27.77;;;;;;;5.40;81.39;99836.69;126339;1099;104245;-83
2021/12/06 04:28:48;;;;;;;70.30;28.90;;;;;;;5.37;81.61;99840.03;126291;1099;104185;-82
2021/12/06 04:31:21;;;;;;;67.07;27.03;;;;;;;5.36;81.55;99840.87;126298;1098;104304;-83
2021/12/06 04:33:53;;;;;;;77.87;28.17;;;;;;;5.38;81.50;99838.34;125300;1099;104275;-82
2021/12/06 04:36:25;;;;;;;69.87;27.60;;;;;;;5.40;81.69;99834.09;125265;1102;104300;-83
2021/12/06 04:38:57;;;;;;;69.13;26.17;;;;;;;5.41;81.86;99828.08;125260;1102;104221;-83
2021/12/06 04:41:28;;;;;;;64.80;27.67;;;;;;;5.43;81.80;99829.02;125455;1099;104329;-83
2021/12/06 04:43:59;;;;;;;65.73;27.13;;;;;;;5.47;81.82;99822.23;126202;1099;104235;-83
2021/12/06 04:46:33;;;;;;;59.30;24.83;;;;;;;5.49;81.64;99833.63;125300;1099;104441;-83
2021/12/06 04:49:08;;;;;;;61.50;26.00;;;;;;;5.53;81.76;99828.63;125244;1102;108160;-83
2021/12/06 04:51:44;;;;;;;69.27;28.90;;;;;;;5.59;81.96;99835.80;125300;1102;104478;-83
2021/12/06 04:54:18;;;;;;;67.07;27.33;;;;;;;5.60;81.99;99828.91;125373;1102;104182;-83
2021/12/06 04:56:53;;;;;;;66.00;26.93;;;;;;;5.62;81.64;99832.46;125487;1102;104175;-83
2021/12/06 04:59:28;;;;;;;66.93;27.03;;;;;;;5.63;81.56;99831.65;125543;1099;118737;-83
2021/12/06 05:02:06;;;;;;;64.40;25.23;;;;;;;5.63;81.66;99829.05;125538;1099;104341;-83
2021/12/06 05:04:43;;;;;;;56.80;25.37;;;;;;;5.66;81.92;99829.19;125534;1099;104258;-83
2021/12/06 05:07:19;;;;;;;56.03;23.90;;;;;;;5.71;82.02;99819.85;126360;1097;104288;-83
2021/12/06 05:09:52;;;;;;;58.07;23.40;;;;;;;5.74;81.99;99833.01;126343;1099;104294;-82
2021/12/06 05:12:30;;;;;;;56.23;24.93;;;;;;;5.74;81.75;99833.01;126209;1099;103263;-82
2021/12/06 05:15:05;;;;;;;59.87;25.20;;;;;;;5.75;81.59;99825.27;125540;1099;104159;-83
2021/12/06 05:17:40;;;;;;;60.37;25.90;;;;;;;5.75;82.05;99827.87;126295;1099;104249;-83
2021/12/06 05:20:19;;;;;;;62.00;24.87;;;;;;;5.76;81.67;99836.55;126308;1099;110609;-82
2021/12/06 05:22:53;;;;;;;52.50;24.53;;;;;;;5.76;82.00;99850.48;126279;1099;104146;-82
2021/12/06 05:25:26;;;;;;;54.30;24.70;;;;;;;5.80;81.76;99841.09;126232;1099;104143;-82
2021/12/06 05:27:59;;;;;;;55.53;22.60;;;;;;;5.85;82.24;99846.50;126205;1099;104252;-82
2021/12/06 05:30:36;;;;;;;56.87;22.43;;;;;;;5.86;81.71;99848.26;126320;1099;104146;-82
2021/12/06 05:33:17;;;;;;;53.33;23.20;;;;;;;5.88;81.87;99836.22;126185;1099;104264;-82
2021/12/06 05:35:48;;;;;;;56.90;25.40;;;;;;;5.92;81.90;99830.30;126240;1099;104660;-82
2021/12/06 05:38:20;;;;;;;56.53;25.10;;;;;;;5.93;81.68;99832.09;126101;1099;104143;-80
2021/12/06 05:40:51;;;;;;;56.93;23.50;;;;;;;5.90;82.48;99827.63;126212;1099;104274;-81
2021/12/06 05:43:24;;;;;;;52.60;22.10;;;;;;;5.85;81.97;99826.55;126170;1099;104197;-81
2021/12/06 05:45:55;;;;;;;51.43;23.37;;;;;;;5.84;82.03;99831.69;126177;1099;104346;-80
2021/12/06 05:48:27;;;;;;;50.03;22.90;;;;;;;5.85;81.85;99828.27;126106;1099;104149;-80
2021/12/06 05:51:02;;;;;;;52.13;21.83;;;;;;;5.87;81.75;99827.50;126233;1097;117864;-80
2021/12/06 05:53:33;;;;;;;53.10;22.73;;;;;;;5.90;81.83;99830.23;126205;1099;104146;-80
2021/12/06 05:56:06;;;;;;;57.50;24.13;;;;;;;6.00;82.21;99835.88;126271;1098;104467;-79
2021/12/06 05:58:37;;;;;;;55.93;24.77;;;;;;;6.09;82.35;99824.16;126175;1099;105398;-80
2021/12/06 06:01:09;;;;;;;59.80;25.57;;;;;;;6.13;82.13;99829.50;125997;1099;104150;-81
2021/12/06 06:03:41;;;;;;;58.53;25.27;;;;;;;6.17;82.30;99831.39;125952;1099;104243;-81
2021/12/06 06:06:21;;;;;;;62.83;24.77;;;;;;;6.17;81.98;99831.39;125893;1099;104264;-82
2021/12/06 06:08:56;;;;;;;60.83;23.63;;;;;;;6.10;82.21;99820.71;126181;1099;104152;-82
2021/12/06 06:11:40;;;;;;;61.03;22.63;;;;;;;6.20;82.40;99839.34;126280;1099;110666;-81
2021/12/06 06:14:17;;;;;;;62.73;24.13;;;;;;;6.24;82.09;99828.23;126005;1099;104139;-80
2021/12/06 06:16:53;;;;;;;64.13;22.83;;;;;;;6.25;82.00;99832.63;126060;1098;104146;-81
2021/12/06 06:19:31;;;;;;;54.13;21.40;;;;;;;6.23;82.01;99840.39;126178;1099;104146;-80
2021/12/06 06:22:05;;;;;;;55.60;22.80;;;;;;;6.21;82.08;99841.13;126306;1099;103360;-80
2021/12/06 06:24:41;;;;;;;61.67;22.67;;;;;;;6.20;82.18;99842.86;126020;1098;103979;-80
2021/12/06 06:27:13;;;;;;;68.15;26.57;;;;;;;6.21;82.30;99835.92;126634;1099;104216;-80
2021/12/06 06:29:46;;;;;;;65.27;28.10;;;;;;;6.22;82.27;99835.98;126174;1099;104075;-79
2021/12/06 06:32:20;;;;;;;71.65;28.38;;;;;;;6.23;82.31;99827.36;125921;1099;104169;-79
2021/12/06 06:35:01;;;;;;;;;;;;;;;;;;;;;
2021/12/06 06:37:36;;;;;;;70.70;27.57;;;;;;;6.30;82.22;99821.56;126112;1099;102842;-80
2021/12/06 06:40:16;;;;;;;69.13;26.47;;;;;;;6.36;82.38;99814.81;125904;1099;104163;-78
2021/12/06 06:42:48;;;;;;;65.77;25.40;;;;;;;6.44;82.33;99824.73;126101;1099;104258;-80
2021/12/06 06:48:11;;;;;;;57.37;24.13;;;;;;;6.57;82.68;99815.70;126865;1099;102153;-81
2021/12/06 06:51:00;;;;;;;62.60;25.10;;;;;;;6.64;82.65;99817.74;126037;1099;104168;-80
2021/12/06 06:53:35;;;;;;;59.90;25.13;;;;;;;6.69;82.28;99825.75;126104;1098;104240;-82
2021/12/06 06:56:20;;;;;;;60.97;25.47;;;;;;;6.72;82.85;99830.20;125934;1099;104262;-82
2021/12/06 06:59:14;;;;;;;66.43;25.33;;;;;;;6.75;82.38;99830.33;126060;1099;104290;-83
2021/12/06 07:01:49;;;;;;;60.30;23.47;;;;;;;6.75;82.92;99827.72;126070;1099;104203;-81
2021/12/06 07:04:25;;;;;;;58.83;24.30;;;;;;;6.79;82.76;99838.34;125969;1099;104104;-82
2021/12/06 07:07:04;;;;;;;63.70;26.70;;;;;;;6.83;82.75;99832.40;125936;1099;104194;-81
2021/12/06 07:09:43;;;;;;;57.45;23.50;;;;;;;6.87;82.78;99833.40;125287;1099;102846;-83
2021/12/06 07:12:20;;;;;;;60.97;22.20;;;;;;;6.93;82.69;99845.80;125842;1099;104267;-84
2021/12/06 07:15:07;;;;;;;56.20;21.47;;;;;;;6.93;82.78;99851.90;126027;1099;104214;-83
2021/12/06 07:17:57;;;;;;;55.50;23.85;;;;;;;6.98;82.55;99846.87;125256;1102;104143;-83
2021/12/06 07:20:47;;;;;;;53.27;22.53;;;;;;;7.01;82.79;99844.38;125230;1102;104230;-85
2021/12/06 07:23:26;;;;;;;50.40;19.77;;;;;;;7.14;82.79;99840.56;125094;1099;104141;-84
2021/12/06 07:26:45;;;;;;;55.80;22.40;;;;;;;7.22;83.12;99838.25;125234;1102;104258;-84
2021/12/06 07:29:25;;;;;;;61.57;22.47;;;;;;;7.33;82.62;99834.31;125155;1100;104168;-81
2021/12/06 07:32:07;;;;;;;60.40;22.07;;;;;;;7.40;82.60;99844.14;125066;1099;104166;-82
2021/12/06 07:34:47;;;;;;;54.35;21.45;;;;;;;7.42;82.54;99852.02;125238;1102;104236;-81
2021/12/06 07:37:24;;;;;;;55.43;21.23;;;;;;;7.41;83.10;99856.37;126181;1099;104284;-82
2021/12/06 07:39:58;;;;;;;51.73;19.73;;;;;;;7.42;82.80;99852.02;125369;1099;104310;-81
2021/12/06 07:42:36;;;;;;;47.77;18.63;;;;;;;7.41;82.72;99843.31;125202;1102;104354;-84
2021/12/06 07:49:03;;;;;;;50.70;20.00;;;;;;;7.41;83.19;99826.78;125117;1102;104182;-84
2021/12/06 07:51:57;;;;;;;49.00;20.47;;;;;;;7.46;83.03;99823.48;125109;1102;104739;-83
2021/12/06 07:54:38;;;;;;;44.67;19.07;;;;;;;7.55;82.91;99812.51;124833;1102;102891;-83
2021/12/06 07:57:34;;;;;;;45.47;19.53;;;;;;;7.52;82.82;99828.06;125066;1102;104275;-84
2021/12/06 08:00:16;;;;;;;44.20;18.83;;;;;;;7.48;83.05;99837.51;125001;1102;102429;-82
2021/12/06 08:02:53;;;;;;;43.87;18.90;;;;;;;7.54;83.16;99837.73;125071;1099;104152;-82
2021/12/06 08:05:32;;;;;;;47.90;20.40;;;;;;;7.60;82.88;99837.05;125016;1099;104219;-82
2021/12/06 08:08:14;;;;;;;41.67;19.53;;;;;;;7.70;83.21;99822.64;124999;1102;104182;-81
2021/12/06 08:10:48;;;;;;;44.30;19.17;;;;;;;7.79;83.11;99820.36;125160;1102;104316;-81
2021/12/06 08:13:24;;;;;;;45.77;19.73;;;;;;;7.85;83.31;99825.80;125140;1102;104206;-82
2021/12/06 08:16:11;;;;;;;45.87;19.63;;;;;;;7.91;83.41;99830.34;125131;1099;104297;-83
2021/12/06 08:18:45;;;;;;;46.07;21.33;;;;;;;7.96;83.49;99825.28;125129;1099;104182;-82
2021/12/06 08:21:21;;;;;;;53.67;21.63;;;;;;;8.00;83.56;99825.44;125156;1102;104169;-81
2021/12/06 08:24:00;;;;;;;42.30;19.50;;;;;;;8.05;82.77;99825.60;125726;1099;105175;-81
2021/12/06 08:26:47;;;;;;;41.03;17.20;;;;;;;8.10;83.16;99803.13;125804;1099;102155;-84
2021/12/06 08:29:23;;;;;;;38.30;16.60;;;;;;;8.24;82.81;99807.12;125779;1099;102062;-80
2021/12/06 08:32:20;;;;;;;37.60;17.67;;;;;;;8.36;83.46;99796.17;125773;1099;105746;-82
2021/12/06 08:35:05;;;;;;;33.17;15.70;;;;;;;8.50;83.50;99791.43;125788;1099;104249;-83
2021/12/06 08:37:44;;;;;;;31.83;15.37;;;;;;;8.59;83.07;99793.47;125811;1099;104198;-82
2021/12/06 08:40:20;;;;;;;39.00;18.20;;;;;;;8.67;82.75;99797.20;125764;1099;104137;-81
2021/12/06 08:42:53;;;;;;;36.07;15.70;;;;;;;8.60;82.97;99796.13;125912;1099;104146;-81
2021/12/06 08:45:31;;;;;;;33.60;15.60;;;;;;;8.57;82.95;99796.03;125845;1099;102570;-82
2021/12/06 08:48:10;;;;;;;34.73;16.57;;;;;;;8.66;82.74;99787.58;125061;1102;102608;-81
2021/12/06 08:50:45;;;;;;;34.90;16.10;;;;;;;8.73;83.41;99788.68;125123;1102;104272;-82
2021/12/06 08:53:23;;;;;;;33.53;14.60;;;;;;;8.81;82.61;99784.57;125882;1098;104223;-83
2021/12/06 08:56:27;;;;;;;;;;;;;;;;;;;;;
2021/12/06 08:59:43;;;;;;;40.30;17.83;;;;;;;9.13;83.43;99782.94;125645;1099;104319;-86
2021/12/06 09:02:38;;;;;;;38.63;18.10;;;;;;;9.28;83.35;99787.73;125736;1099;104390;-86
2021/12/06 09:05:20;;;;;;;36.87;18.23;;;;;;;9.51;82.80;99779.66;125263;1099;104711;-83
2021/12/06 09:07:57;;;;;;;32.03;15.73;;;;;;;9.65;83.16;99772.19;125796;1099;104310;-84
2021/12/06 09:10:53;;;;;;;;;;;;;;;;;;;;;
2021/12/06 09:14:03;;;;;;;30.07;14.60;;;;;;;9.61;83.17;99763.34;125939;1099;104178;-85
2021/12/06 09:16:57;;;;;;;29.27;14.25;;;;;;;9.61;82.24;99760.72;125216;1099;104229;-83
2021/12/06 09:19:34;;;;;;;25.13;12.30;;;;;;;9.56;82.62;99759.72;125839;1098;104705;-82
2021/12/06 09:22:11;;;;;;;26.53;12.97;;;;;;;9.59;82.90;99758.92;125891;1099;102281;-82
2021/12/06 09:24:52;;;;;;;29.37;14.47;;;;;;;9.65;83.09;99746.88;126003;1099;104146;-80
2021/12/06 09:28:12;;;;;;;26.40;12.33;;;;;;;9.72;82.45;99747.92;125954;1099;104307;-83
2021/12/06 09:30:48;;;;;;;27.47;11.90;;;;;;;9.77;83.11;99745.42;125848;1099;104182;-82
2021/12/06 09:33:50;;;;;;;24.73;11.50;;;;;;;9.77;82.68;99740.18;126113;1099;104435;-82
2021/12/06 09:36:51;;;;;;;25.33;11.43;;;;;;;9.85;82.90;99744.80;125869;1099;109399;-82
2021/12/06 09:39:31;;;;;;;25.70;12.27;;;;;;;9.94;83.20;99743.25;125856;1099;104165;-83
2021/12/06 09:42:22;;;;;;;27.83;12.67;;;;;;;9.99;82.84;99742.53;125801;1099;103133;-83
2021/12/06 09:44:57;;;;;;;28.27;13.97;;;;;;;9.95;82.92;99731.94;125860;1099;104489;-82
2021/12/06 09:47:36;;;;;;;29.30;14.87;;;;;;;9.92;82.87;99732.73;126029;1099;104663;-82
2021/12/06 09:50:27;;;;;;;31.93;14.47;;;;;;;9.94;82.64;99728.44;125984;1099;104226;-82
2021/12/06 09:53:07;;;;;;;32.17;14.37;;;;;;;10.01;82.53;99725.10;125910;1098;104219;-81
2021/12/06 09:55:44;;;;;;;34.53;14.23;;;;;;;10.02;82.77;99729.52;125973;1099;104284;-82
2021/12/06 09:59:02;;;;;;;32.70;14.27;;;;;;;10.06;82.90;99733.96;126025;1099;101825;-81
2021/12/06 10:01:59;;;;;;;33.50;14.77;;;;;;;10.03;82.82;99723.40;125290;1099;101987;-82
2021/12/06 10:04:47;;;;;;;31.20;14.60;;;;;;;10.02;82.98;99729.52;125326;1102;104290;-82
2021/12/06 10:07:28;;;;;;;36.33;15.47;;;;;;;10.02;82.32;99725.98;125474;1099;104339;-83
2021/12/06 10:10:18;;;;;;;28.10;13.30;;;;;;;10.00;82.84;99725.97;126044;1099;104309;-82
2021/12/06 10:12:59;;;;;;;32.95;14.10;;;;;;;9.95;82.97;99730.19;125328;1102;104312;-83
2021/12/06 10:15:33;;;;;;;32.40;14.23;;;;;;;9.94;82.77;99720.58;125198;1099;104178;-82
2021/12/06 10:18:21;;;;;;;35.40;14.23;;;;;;;9.92;82.90;99711.77;125855;1099;104160;-83
2021/12/06 10:24:40;;;;;;;31.50;13.60;;;;;;;10.02;82.53;99716.41;125408;1099;104178;-84
2021/12/06 10:27:43;;;;;;;35.98;15.43;;;;;;;9.98;82.48;99709.30;125781;1098;104153;-84
2021/12/06 10:30:34;;;;;;;38.83;16.37;;;;;;;9.95;82.97;99703.98;125898;1099;104255;-84
2021/12/06 10:33:20;;;;;;;35.13;14.27;;;;;;;9.94;82.37;99702.23;125836;1099;104150;-84
2021/12/06 10:35:57;;;;;;;36.43;14.63;;;;;;;9.90;82.97;99690.76;125715;1099;104239;-83
2021/12/06 10:38:59;;;;;;;;;;;;;;;;;;;;;
2021/12/06 10:41:46;;;;;;;31.00;12.77;;;;;;;9.82;82.36;99675.70;125069;1102;104182;-82
2021/12/06 10:44:30;;;;;;;34.37;14.17;;;;;;;9.79;82.49;99668.64;124978;1102;103031;-83
2021/12/06 10:47:18;;;;;;;31.30;13.17;;;;;;;9.76;82.49;99673.80;125140;1102;104320;-82
2021/12/06 10:49:56;;;;;;;29.43;12.63;;;;;;;9.76;83.11;99670.31;125097;1102;104320;-83
2021/12/06 10:52:34;;;;;;;35.33;12.90;;;;;;;9.76;82.57;99667.69;125039;1102;104229;-84
2021/12/06 10:55:31;;;;;;;34.80;13.45;;;;;;;9.81;82.36;99679.17;125077;1102;104156;-84
2021/12/06 10:58:09;;;;;;;34.40;13.63;;;;;;;9.87;83.19;99674.95;125060;1102;103925;-83
2021/12/06 11:00:54;;;;;;;34.27;14.50;;;;;;;9.87;83.02;99669.72;125156;1103;104252;-83
2021/12/06 11:03:33;;;;;;;36.80;15.37;;;;;;;9.86;83.04;99667.06;125200;1102;104229;-84
2021/12/06 11:06:15;;;;;;;34.43;14.23;;;;;;;9.83;82.52;99672.22;125219;1099;103231;-85
2021/12/06 11:08:55;;;;;;;39.20;16.63;;;;;;;9.78;82.79;99679.09;125344;1102;107707;-84
2021/12/06 11:11:43;;;;;;;36.37;15.07;;;;;;;9.75;82.57;99689.48;124967;1100;104450;-84
2021/12/06 11:14:29;;;;;;;37.27;16.17;;;;;;;9.76;82.74;99683.41;126037;1099;104158;-83
2021/12/06 11:17:19;;;;;;;39.23;16.53;;;;;;;9.75;82.92;99682.50;125910;1099;102949;-85
2021/12/06 11:19:56;;;;;;;35.93;15.53;;;;;;;9.81;82.85;99682.66;125693;1099;104410;-83
2021/12/06 11:22:32;;;;;;;38.23;16.70;;;;;;;9.87;82.84;99684.56;125568;1099;104187;-83
2021/12/06 11:25:16;;;;;;;;;;;;;;;9.87;82.54;99684.56;125704;1099;104201;-84
2021/12/06 11:27:50;;;;;;;40.05;16.85;;;;;;;9.86;82.74;99693.27;125663;1099;104199;-81
2021/12/06 11:30:27;;;;;;;41.37;18.43;;;;;;;9.89;83.09;99678.53;125248;1099;104172;-83
2021/12/06 11:33:02;;;;;;;41.13;16.63;;;;;;;9.83;82.82;99664.36;125921;1099;104303;-84
2021/12/06 11:35:34;;;;;;;37.00;16.03;;;;;;;9.87;83.30;99669.72;125813;1099;104220;-82
2021/12/06 11:39:00;;;;;;;36.13;16.63;;;;;;;9.88;82.70;99674.13;125228;1099;105774;-83
2021/12/06 11:42:22;;;;;;;;;;;;;;;;;;;;;
2021/12/06 11:45:32;;;;;;;30.05;13.35;;;;;;;9.83;83.34;99672.22;124971;1102;104281;-82
2021/12/06 11:48:11;;;;;;;39.00;15.50;;;;;;;9.84;83.18;99660.91;125105;1102;104949;-83
2021/12/06 11:50:49;;;;;;;33.57;14.53;;;;;;;9.90;83.01;99661.06;125053;1102;104338;-82
2021/12/06 11:53:26;;;;;;;32.83;14.17;;;;;;;9.98;82.99;99656.88;125156;1102;103257;-81
2021/12/06 11:56:10;;;;;;;32.03;14.43;;;;;;;10.06;83.54;99650.08;124750;1102;104287;-81
2021/12/06 11:59:02;;;;;;;32.07;15.03;;;;;;;10.14;83.51;99658.13;124890;1102;105566;-81
2021/12/06 12:02:07;;;;;;;34.53;14.77;;;;;;;10.14;83.15;99657.26;125130;1102;104244;-81
2021/12/06 12:08:23;;;;;;;36.00;14.20;;;;;;;10.16;83.09;99650.30;124965;1102;101826;-80
2021/12/06 12:11:03;;;;;;;32.80;13.90;;;;;;;10.20;83.13;99652.16;124993;1102;104159;-81
2021/12/06 12:13:47;;;;;;;33.33;15.00;;;;;;;10.23;83.31;99642.63;124845;1102;104417;-80
2021/12/06 12:16:21;;;;;;;28.50;12.37;;;;;;;10.30;83.25;99643.67;124836;1102;104295;-80
2021/12/06 12:19:08;;;;;;;33.63;15.07;;;;;;;10.34;83.47;99645.52;124990;1102;107432;-81
2021/12/06 12:24:51;;;;;;;39.67;18.40;;;;;;;10.57;83.09;99643.42;124801;1105;104156;-80
2021/12/06 12:28:12;;;;;;;35.70;17.30;;;;;;;10.67;83.39;99634.00;124916;1105;104127;-82
2021/12/06 12:31:43;;;;;;;37.57;16.60;;;;;;;10.75;83.12;99642.95;124952;1106;104287;-81
2021/12/06 12:34:53;;;;;;;;;;;;;;;;;;;;;